Latest Weather Observations for Mount Hotham

IDV60801

Issued at 6:42 pm EDT Monday 5 December 2022 (issued every 10 minutes, with the page automatically refreshed every 10 minutes)

About weather observations | Map of weather stations | Latest weather observations for VIC | Other Formats
Station Details ID: 083085 Name: MOUNT HOTHAM Lat: -36.98 Lon: 147.13 Height: 1849.0 m
Data from the previous 72 hours. | See also: Recent months at Mount Hotham
Date/Time
EDT
Temp
°C
App
Temp
°C
Dew
Point
°C
Rel
Hum
%
Delta-T
°C
Wind Press
QNH
hPa
Press
MSL
hPa
Rain since
9am
mm
Dir  Spd
km/h
Gust
km/h
Spd
kts
Gust
kts
05/06:30pm 8.0 4.1 6.9 93 0.6 SSE 17 24 9 13 - - 1.4
05/06:00pm 10.2 6.9 4.4 67 2.9 WSW 11 20 6 11 - - 1.4
05/05:30pm 12.0 9.6 5.4 64 3.4 WNW 7 15 4 8 - - 1.4
05/05:00pm 11.0 8.1 4.5 64 3.3 W 9 17 5 9 - - 1.4
05/04:30pm 9.9 6.3 4.9 71 2.5 SW 13 26 7 14 - - 1.4
05/04:00pm 10.1 5.5 5.7 74 2.3 WNW 19 32 10 17 - - 1.4
05/03:30pm 10.9 6.7 7.6 80 1.8 WNW 19 35 10 19 - - 1.4
05/03:00pm 10.5 5.5 7.9 84 1.4 NW 24 35 13 19 - - 1.4
05/02:30pm 8.8 4.5 7.1 89 0.9 NW 19 39 10 21 - - 1.4
05/02:00pm 8.8 3.4 8.0 95 0.4 NNW 26 39 14 21 - - 1.4
05/01:30pm 7.5 0.5 6.9 96 0.3 NNW 33 46 18 25 - - 1.4
05/01:20pm 7.3 0.5 6.7 96 0.3 NNW 32 50 17 27 - - 1.4
05/01:00pm 7.3 0.2 6.4 94 0.5 NNW 33 46 18 25 - - 1.4
05/12:30pm 6.9 -1.1 5.5 91 0.7 NNW 37 56 20 30 - - 1.4
05/12:00pm 6.9 -2.4 5.1 88 0.9 NW 43 61 23 33 - - 1.0
05/11:34am 7.9 1.0 4.5 79 1.7 NW 30 46 16 25 - - 0.6
05/11:30am 8.1 1.1 4.3 77 1.9 NW 30 46 16 25 - - 0.6
05/11:00am 7.8 0.6 5.1 83 1.3 NW 32 52 17 28 - - 0.6
05/10:50am 7.9 1.5 5.2 83 1.3 NW 28 46 15 25 - - 0.4
05/10:30am 8.3 3.2 5.8 84 1.3 NW 22 37 12 20 - - 0.2
05/10:00am 9.0 3.1 5.6 79 1.7 WNW 26 41 14 22 - - 0.0
05/09:30am 11.6 7.4 7.3 75 2.3 WNW 19 30 10 16 - - 0.0
05/09:00am 11.7 5.6 6.8 72 2.6 NNW 28 44 15 24 - - 0.0
05/08:30am 11.6 4.8 7.5 76 2.2 NNW 33 48 18 26 - - 0.0
05/08:22am 11.8 5.2 8.5 80 1.8 NNW 33 52 18 28 - - 0.0
05/08:00am 10.6 3.0 7.5 81 1.7 NNW 37 50 20 27 - - 0.0
05/07:39am 10.6 2.2 7.3 80 1.8 NNW 41 59 22 32 - - 0.0
05/07:30am 10.5 1.7 7.2 80 1.7 NNW 43 57 23 31 - - 0.0
05/07:00am 10.5 1.1 7.0 79 1.8 NNW 46 69 25 37 - - 0.0
05/06:30am 10.7 1.3 7.0 78 2.0 NNW 46 65 25 35 - - 0.0
05/06:00am 11.0 2.2 7.1 77 2.1 NNW 43 61 23 33 - - 0.0
05/05:32am 11.2 2.4 7.1 76 2.2 NNW 43 63 23 34 - - 0.0
05/05:30am 11.2 2.4 7.3 77 2.1 NNW 43 59 23 32 - - 0.0
05/05:00am 11.5 3.4 7.2 75 2.3 NNW 39 61 21 33 - - 0.0
05/04:30am 11.9 2.4 6.8 71 2.7 NNW 46 69 25 37 - - 0.0
05/04:00am 11.7 3.2 7.0 73 2.5 N 41 61 22 33 - - 0.0
05/03:56am 11.5 3.4 7.0 74 2.4 NNW 39 61 21 33 - - 0.0
05/03:30am 11.5 4.2 7.2 75 2.3 NNW 35 50 19 27 - - 0.0
05/03:00am 12.1 4.8 7.2 72 2.6 NNW 35 54 19 29 - - 0.0
05/02:55am 12.1 4.8 7.4 73 2.5 NNW 35 54 19 29 - - 0.0
05/02:30am 12.0 5.1 7.1 72 2.6 N 33 43 18 23 - - 0.0
05/02:00am 12.2 5.2 6.9 70 2.8 NNW 33 50 18 27 - - 0.0
05/01:30am 12.3 4.6 7.0 70 2.8 N 37 48 20 26 - - 0.0
05/01:00am 12.2 5.4 6.9 70 2.8 N 32 39 17 21 - - 0.0
05/12:30am 12.6 6.1 6.6 67 3.2 NNW 30 39 16 21 - - 0.0
05/12:00am 12.6 5.9 7.3 70 2.8 NNW 32 39 17 21 - - 0.0
 
Date/Time
EDT
Temp
°C
App
Temp
°C
Dew
Point
°C
Rel
Hum
%
Delta-T
°C
Wind Press
QNH
hPa
Press
MSL
hPa
Rain since
9am
mm
Dir  Spd
km/h
Gust
km/h
Spd
kts
Gust
kts
04/11:30pm 12.4 7.7 7.7 73 2.5 NNW 22 30 12 16 - - 0.0
04/11:00pm 12.6 7.9 7.7 72 2.7 NNW 22 30 12 16 - - 0.0
04/10:30pm 12.4 8.4 8.1 75 2.3 NNW 19 24 10 13 - - 0.0
04/10:00pm 12.6 8.5 7.7 72 2.7 NNW 19 24 10 13 - - 0.0
04/09:30pm 12.8 8.6 8.1 73 2.6 NW 20 26 11 14 - - 0.0
04/09:00pm 12.9 8.3 8.2 73 2.6 NW 22 30 12 16 - - 0.0
04/08:30pm 13.0 8.4 8.3 73 2.6 NW 22 32 12 17 - - 0.0
04/08:00pm 13.6 9.0 8.2 70 3.0 NW 22 32 12 17 - - 0.0
04/07:30pm 14.3 10.3 8.3 67 3.3 NW 19 30 10 16 - - 0.0
04/07:00pm 14.3 10.2 8.5 68 3.2 NW 20 28 11 15 - - 0.0
04/06:30pm 14.6 10.0 8.1 65 3.6 NW 22 32 12 17 - - 0.0
04/06:00pm 15.4 12.0 9.1 66 3.6 NW 17 26 9 14 - - 0.0
04/05:30pm 15.1 11.7 9.0 67 3.4 WNW 17 28 9 15 - - 0.0
04/05:00pm 15.9 13.0 9.8 67 3.5 NW 15 26 8 14 - - 0.0
04/04:30pm 16.0 12.8 9.9 67 3.5 WNW 17 26 9 14 - - 0.0
04/04:00pm 17.1 14.5 10.7 66 3.8 NW 15 22 8 12 - - 0.0
04/03:30pm 16.5 13.4 8.7 60 4.4 WNW 15 26 8 14 - - 0.0
04/03:00pm 16.0 13.9 9.7 66 3.6 W 11 28 6 15 - - 0.0
04/02:30pm 17.2 14.0 9.9 62 4.2 WNW 17 26 9 14 - - 0.0
04/02:00pm 16.2 13.4 8.7 61 4.2 WNW 13 28 7 15 - - 0.0
04/01:30pm 15.6 13.0 10.6 72 2.9 NNW 15 22 8 12 - - 0.0
04/01:00pm 14.7 12.0 8.9 68 3.3 NW 13 26 7 14 - - 0.0
04/12:30pm 14.7 12.2 8.4 66 3.5 NW 11 20 6 11 - - 0.0
04/12:00pm 13.7 11.5 7.7 67 3.3 W 9 15 5 8 - - 0.0
04/11:30am 15.6 14.1 10.4 71 3.0 NNW 9 22 5 12 - - 0.0
04/11:00am 14.2 12.1 9.6 74 2.6 WNW 11 17 6 9 - - 0.0
04/10:30am 14.4 12.4 8.8 69 3.1 WNW 9 15 5 8 - - 0.0
04/10:00am 13.7 11.6 9.6 76 2.3 WNW 11 17 6 9 - - 0.0
04/09:30am 12.7 9.7 7.6 71 2.8 WNW 13 19 7 10 - - 0.0
04/09:00am 13.0 10.5 8.1 72 2.7 WNW 11 15 6 8 - - 0.0
04/08:30am 12.7 10.8 7.6 71 2.8 NW 7 13 4 7 - - 0.0
04/08:00am 12.2 10.3 7.7 74 2.4 NW 7 11 4 6 - - 0.0
04/07:30am 11.6 9.4 7.7 77 2.1 WNW 9 11 5 6 - - 0.0
04/07:00am 11.7 9.2 6.6 71 2.7 W 9 13 5 7 - - 0.0
04/06:30am 10.5 8.3 7.7 83 1.5 WNW 9 11 5 6 - - 0.0
04/06:00am 11.1 7.2 5.2 67 3.0 WSW 15 20 8 11 - - 0.0
04/05:30am 10.5 6.8 6.3 75 2.2 WSW 15 20 8 11 - - 0.0
04/05:00am 11.0 6.7 5.3 68 2.9 WSW 17 22 9 12 - - 0.0
04/04:30am 10.5 7.8 7.2 80 1.7 WSW 11 17 6 9 - - 0.0
04/04:00am 10.5 7.2 6.5 76 2.1 W 13 17 7 9 - - 0.0
04/03:30am 10.5 7.7 7.0 79 1.8 WNW 11 15 6 8 - - 0.0
04/03:00am 10.8 8.0 7.1 78 2.0 WNW 11 13 6 7 - - 0.0
04/02:30am 11.2 9.4 7.9 80 1.8 WNW 7 11 4 6 - - 0.0
04/02:00am 10.7 8.6 8.1 84 1.4 WNW 9 11 5 6 - - 0.0
04/01:30am 10.9 8.8 8.3 84 1.4 WNW 9 11 5 6 - - 0.0
04/01:00am 10.8 8.7 8.2 84 1.4 WNW 9 11 5 6 - - 0.0
04/12:30am 11.1 9.3 8.1 82 1.6 W 7 9 4 5 - - 0.0
04/12:00am 11.1 9.6 8.3 83 1.5 WNW 6 7 3 4 - - 0.0
 
Date/Time
EDT
Temp
°C
App
Temp
°C
Dew
Point
°C
Rel
Hum
%
Delta-T
°C
Wind Press
QNH
hPa
Press
MSL
hPa
Rain since
9am
mm
Dir  Spd
km/h
Gust
km/h
Spd
kts
Gust
kts
03/11:30pm 10.9 9.0 9.0 88 1.0 W 9 9 5 5 - - 0.0
03/11:00pm 11.0 9.7 9.1 88 1.0 WNW 6 9 3 5 - - 0.0
03/10:30pm 10.7 9.9 9.6 93 0.6 NNW 4 6 2 3 - - 0.0
03/10:00pm 11.6 11.3 10.2 91 0.8 NNW 2 6 1 3 - - 0.0
03/09:30pm 11.6 11.1 9.5 87 1.2 NE 2 4 1 2 - - 0.0
03/09:00pm 12.0 11.5 10.7 92 0.7 NW 4 6 2 3 - - 0.0
03/08:30pm 12.3 11.4 10.5 89 1.0 WNW 6 11 3 6 - - 0.0
03/08:00pm 12.3 11.5 10.9 91 0.8 NW 6 7 3 4 - - 0.0
03/07:30pm 12.6 11.2 10.8 89 1.0 NNW 9 11 5 6 - - 0.0
03/07:00pm 12.9 11.9 10.4 85 1.4 NNW 6 9 3 5 - - 0.0
03/06:30pm 13.4 11.9 10.6 83 1.6 N 9 15 5 8 - - 0.0
03/06:00pm 14.0 12.1 10.4 79 2.1 W 11 15 6 8 - - 0.0
03/05:30pm 15.4 13.1 10.6 73 2.8 W 13 17 7 9 - - 0.0
03/05:00pm 15.6 13.5 9.9 69 3.3 SW 11 19 6 10 - - 0.0
03/04:30pm 15.5 13.5 10.1 70 3.1 SW 11 19 6 10 - - 0.0
03/04:00pm 15.1 13.4 9.7 70 3.1 SW 9 13 5 7 - - 0.0
03/03:30pm 15.4 14.0 9.5 68 3.4 SSW 7 17 4 9 - - 0.0
03/03:00pm 15.3 13.5 9.4 68 3.3 SSW 9 19 5 10 - - 0.0
03/02:30pm 14.4 11.5 8.1 66 3.5 SW 13 24 7 13 - - 0.0
03/02:00pm 13.9 11.5 8.7 71 2.9 WSW 11 19 6 10 - - 0.0
03/01:30pm 14.7 12.9 10.7 77 2.3 SW 11 20 6 11 - - 0.0
03/01:00pm 13.6 11.3 9.1 74 2.5 SW 11 19 6 10 - - 0.0
03/12:30pm 12.9 10.9 8.6 75 2.4 SW 9 22 5 12 - - 0.0
03/12:00pm 12.5 10.8 9.7 83 1.6 WSW 9 19 5 10 - - 0.0
03/11:30am 11.1 8.7 8.7 85 1.3 WSW 11 26 6 14 - - 0.0
03/11:00am 10.7 8.3 8.6 87 1.1 WSW 11 20 6 11 - - 0.0
03/10:30am 10.2 7.4 8.5 89 0.9 W 13 19 7 10 - - 0.0
03/10:00am 9.6 7.1 8.0 90 0.9 WNW 11 17 6 9 - - 0.0
03/09:30am 9.1 7.1 8.5 96 0.3 WNW 9 15 5 8 - - 0.0
03/09:00am 8.8 6.0 8.7 99 0.1 WNW 13 22 7 12 - - 0.2
03/08:30am 8.5 5.7 8.4 99 0.1 WNW 13 17 7 9 - - 0.2
03/08:00am 8.4 5.5 8.3 99 0.1 WNW 13 20 7 11 - - 0.2
03/07:30am 8.0 4.3 7.9 99 0.1 WNW 17 24 9 13 - - 0.2
03/07:00am 7.9 4.2 7.8 99 0.1 WNW 17 22 9 12 - - 0.2
03/06:30am 7.9 4.2 7.8 99 0.1 NW 17 22 9 12 - - 0.2
03/06:00am 7.9 3.6 7.8 99 0.1 NW 20 26 11 14 - - 0.2
03/05:30am 7.9 3.8 7.8 99 0.1 NW 19 26 10 14 - - 0.2
03/05:00am 8.0 3.0 7.9 99 0.1 NW 24 32 13 17 - - 0.0
03/04:30am 8.1 3.5 8.0 99 0.1 NW 22 28 12 15 - - 0.0
03/04:00am 8.1 2.5 7.3 95 0.4 NW 26 32 14 17 - - 0.0
03/03:30am 8.5 2.6 7.4 93 0.6 NW 28 35 15 19 - - 0.0
03/03:00am 8.4 3.1 6.7 89 0.9 NW 24 32 13 17 - - 0.0
03/02:30am 8.5 4.6 7.3 92 0.6 NW 17 26 9 14 - - 0.0
03/02:00am 8.5 5.3 7.0 90 0.8 NW 13 19 7 10 - - 0.0
03/01:30am 8.6 5.9 7.4 92 0.6 NW 11 15 6 8 - - 0.0
03/01:00am 8.6 6.4 7.7 94 0.5 WNW 9 11 5 6 - - 0.0
03/12:30am 8.7 6.4 7.3 91 0.7 W 9 11 5 6 - - 0.0
03/12:00am 9.0 7.8 8.2 95 0.4 WNW 4 6 2 3 - - 0.0
 
Date/Time
EDT
Temp
°C
App
Temp
°C
Dew
Point
°C
Rel
Hum
%
Delta-T
°C
Wind Press
QNH
hPa
Press
MSL
hPa
Rain since
9am
mm
Dir  Spd
km/h
Gust
km/h
Spd
kts
Gust
kts
02/11:30pm 8.9 7.4 8.5 97 0.2 NNW 6 7 3 4 - - 0.0
02/11:00pm 9.1 7.6 8.5 96 0.3 WNW 6 7 3 4 - - 0.0
02/10:30pm 9.2 7.1 8.4 95 0.4 NNW 9 11 5 6 - - 0.0
02/10:00pm 9.3 7.6 8.5 95 0.4 NNW 7 9 4 5 - - 0.0
02/09:30pm 8.7 7.2 8.3 97 0.2 ENE 6 7 3 4 - - 0.0
02/09:00pm 8.9 7.4 8.5 97 0.2 ENE 6 7 3 4 - - 0.0
02/08:30pm 9.3 7.6 8.4 94 0.5 E 7 11 4 6 - - 0.0
02/08:00pm 10.0 8.5 8.6 91 0.8 ENE 6 7 3 4 - - 0.0
02/07:30pm 10.4 9.6 8.3 87 1.1 ESE 2 7 1 4 - - 0.0
02/07:00pm 10.7 8.9 7.9 83 1.5 SSE 7 13 4 7 - - 0.0

Other formats

Comma delimited format used in spreadsheet applications
http://www.bom.gov.au/fwo/IDV60801/IDV60801.94906.axf

JavaScript Object Notation format (JSON) in row-major order
http://www.bom.gov.au/fwo/IDV60801/IDV60801.94906.json

Data quality

Most of these data are generated automatically and are frequently updated. Quality checks on data are not normally performed. It is possible for incorrect values to appear. Refer to information at About Latest Weather Observations and please check the disclaimer before using these data.